Time;durP1;ratioP1;P1;durP2;ratioP2;P2;SDS_P1;SDS_P2;PMS_P1;PMS_P2;Temp;Humidity;BMP_temperature;BMP_pressure;BME280_temperature;BME280_humidity;BME280_pressure;Samples;Min_cycle;Max_cycle;Signal;HPM_P1;HPM_P2
2022/05/05 00:01:34;;;;;;;8.30;3.00;;;;;;;8.14;38.24;100274.52;104683;1274;59734;-65
2022/05/05 00:04:22;;;;;;;7.70;2.40;;;;;;;8.10;38.38;100274.27;104714;1273;73492;-67
2022/05/05 00:07:11;;;;;;;7.90;3.00;;;;;;;8.07;38.45;100273.40;104780;1271;69817;-68
2022/05/05 00:14:23;;;;;;;11.30;2.80;;;;;;;8.06;38.66;100275.40;104903;1271;74470;-66
2022/05/05 00:16:13;;;;;;;9.60;2.80;;;;;;;8.02;38.61;100270.86;105054;1271;60304;-69
2022/05/05 00:19:02;;;;;;;8.00;2.70;;;;;;;8.01;39.04;100275.52;104933;1271;72717;-68
2022/05/05 00:21:51;;;;;;;10.80;3.40;;;;;;;7.98;39.19;100275.16;104737;1271;68549;-66
2022/05/05 00:24:39;;;;;;;9.00;2.70;;;;;;;7.97;39.46;100270.48;104897;1271;73582;-63
2022/05/05 00:27:28;;;;;;;9.40;2.70;;;;;;;7.94;39.37;100267.45;104858;1271;59765;-63
2022/05/05 00:30:16;;;;;;;9.60;3.00;;;;;;;7.94;39.51;100263.44;105032;1271;61976;-66
2022/05/05 00:33:04;;;;;;;9.00;3.00;;;;;;;7.93;39.47;100262.25;104854;1272;73461;-65
2022/05/05 00:35:51;;;;;;;9.80;3.00;;;;;;;7.93;39.39;100262.24;105118;1271;68069;-62
2022/05/05 00:38:39;;;;;;;9.70;2.90;;;;;;;7.94;39.46;100260.61;104946;1271;71915;-69
2022/05/05 00:41:36;;;;;;;9.90;2.70;;;;;;;7.94;39.22;100260.27;104838;1271;59540;-64
2022/05/05 00:44:24;;;;;;;8.60;2.90;;;;;;;7.95;39.20;100259.64;104769;1271;60250;-64
2022/05/05 00:47:16;;;;;;;8.50;2.40;;;;;;;7.98;39.24;100261.39;105001;1271;74106;-63
2022/05/05 00:50:05;;;;;;;8.40;2.70;;;;;;;8.02;39.18;100260.09;104920;1271;69605;-64
2022/05/05 00:52:53;;;;;;;9.00;2.50;;;;;;;8.05;38.85;100259.54;104727;1271;73290;-63
2022/05/05 00:55:42;;;;;;;8.60;2.40;;;;;;;8.09;39.29;100263.71;105051;1271;59806;-63
2022/05/05 00:58:30;;;;;;;12.00;3.10;;;;;;;8.11;39.38;100261.61;105055;1273;60344;-64
2022/05/05 01:01:20;;;;;;;9.40;3.10;;;;;;;8.14;39.07;100257.39;104827;1273;74959;-65
2022/05/05 01:04:10;;;;;;;9.40;2.60;;;;;;;8.16;38.91;100261.50;104609;1274;67910;-64
2022/05/05 01:07:02;;;;;;;9.00;2.70;;;;;;;8.17;38.87;100259.81;104803;1273;74288;-66
2022/05/05 01:09:50;;;;;;;8.70;2.70;;;;;;;8.18;39.08;100259.41;104680;1274;59669;-65
2022/05/05 01:12:39;;;;;;;8.30;2.80;;;;;;;8.19;38.96;100259.69;104935;1271;59637;-64
2022/05/05 01:15:30;;;;;;;9.50;3.20;;;;;;;8.20;38.59;100253.96;104865;1271;72587;-64
2022/05/05 01:18:19;;;;;;;8.50;2.80;;;;;;;8.23;38.74;100250.67;104764;1271;67058;-63
2022/05/05 01:21:10;;;;;;;7.50;2.40;;;;;;;8.24;38.93;100248.46;104852;1271;73289;-62
2022/05/05 01:23:58;;;;;;;9.60;2.60;;;;;;;8.23;38.77;100252.53;104718;1271;60116;-65
2022/05/05 01:29:54;;;;;;;10.50;2.90;;;;;;;8.25;38.58;100250.66;104882;1271;74061;-65
2022/05/05 01:32:43;;;;;;;7.40;2.50;;;;;;;8.26;38.48;100247.98;104720;1272;66710;-63
2022/05/05 01:35:31;;;;;;;7.90;2.70;;;;;;;8.23;38.72;100240.15;104868;1271;73960;-64
2022/05/05 01:38:36;;;;;;;10.70;2.60;;;;;;;8.25;38.85;100249.05;104606;1274;59676;-64
2022/05/05 01:41:24;;;;;;;10.90;2.50;;;;;;;8.25;38.96;100254.39;105211;1273;59668;-65
2022/05/05 01:44:12;;;;;;;7.60;2.30;;;;;;;8.24;38.83;100249.00;104825;1273;72202;-68
2022/05/05 01:47:00;;;;;;;8.40;2.80;;;;;;;8.22;38.88;100246.27;104891;1273;69653;-65
2022/05/05 01:49:48;;;;;;;8.40;2.40;;;;;;;8.22;38.77;100245.20;104942;1271;72171;-65
2022/05/05 01:52:36;;;;;;;8.30;2.50;;;;;;;8.21;38.86;100242.64;104914;1271;59703;-64
2022/05/05 01:55:25;;;;;;;8.40;2.70;;;;;;;8.22;38.67;100240.99;104948;1271;60305;-64
2022/05/05 01:58:13;;;;;;;7.90;2.60;;;;;;;8.22;38.70;100240.98;104983;1271;71727;-64
2022/05/05 02:01:00;;;;;;;8.00;2.70;;;;;;;8.23;38.71;100243.76;103439;1271;1018920;-64
2022/05/05 02:03:48;;;;;;;7.80;2.50;;;;;;;8.23;38.72;100246.75;104835;1271;73253;-64
2022/05/05 02:06:36;;;;;;;7.60;2.70;;;;;;;8.23;38.90;100244.98;105192;1271;59697;-63
2022/05/05 02:09:24;;;;;;;8.20;2.70;;;;;;;8.21;39.18;100247.05;104818;1273;61299;-63
2022/05/05 02:12:12;;;;;;;9.00;2.50;;;;;;;8.18;39.13;100249.00;104782;1274;72964;-64
2022/05/05 02:15:01;;;;;;;11.40;3.50;;;;;;;8.16;39.31;100248.92;104851;1273;69171;-64
2022/05/05 02:17:49;;;;;;;8.50;2.60;;;;;;;8.13;39.57;100249.34;105005;1271;74047;-64
2022/05/05 02:20:39;;;;;;;9.50;3.00;;;;;;;8.10;39.57;100244.16;104649;1273;59733;-63
2022/05/05 02:23:30;;;;;;;9.00;3.00;;;;;;;8.09;39.96;100242.70;104908;1271;59832;-64
2022/05/05 02:26:17;;;;;;;7.80;2.90;;;;;;;8.06;40.27;100242.70;104994;1274;74772;-64
2022/05/05 02:29:05;;;;;;;10.20;3.10;;;;;;;8.04;40.39;100242.52;104965;1274;68454;-65
2022/05/05 02:31:53;;;;;;;11.80;3.30;;;;;;;8.01;40.52;100246.36;104963;1274;73755;-65
2022/05/05 02:34:41;;;;;;;9.60;2.90;;;;;;;7.98;40.76;100244.94;104756;1274;59599;-67
2022/05/05 02:40:36;;;;;;;11.50;2.70;;;;;;;7.94;41.00;100228.77;104735;1274;72798;-64
2022/05/05 02:43:24;;;;;;;9.90;2.90;;;;;;;7.93;41.26;100226.72;105100;1274;69489;-65
2022/05/05 02:46:12;;;;;;;7.70;2.70;;;;;;;7.93;41.33;100225.13;104916;1273;72613;-65
2022/05/05 02:49:01;;;;;;;9.70;2.50;;;;;;;7.92;41.70;100222.58;104832;1273;59673;-65
2022/05/05 02:51:49;;;;;;;8.60;2.60;;;;;;;7.91;41.92;100219.84;105054;1271;60579;-64
2022/05/05 02:54:55;;;;;;;9.50;2.80;;;;;;;7.89;41.92;100221.71;104903;1271;74068;-64
2022/05/05 02:57:43;;;;;;;9.20;3.00;;;;;;;7.88;42.36;100221.56;105324;1271;67519;-67
2022/05/05 03:00:30;;;;;;;11.70;2.80;;;;;;;7.86;42.24;100222.08;105231;1274;71307;-64
2022/05/05 03:03:19;;;;;;;8.70;2.60;;;;;;;7.85;42.53;100224.61;104855;1271;59672;-64
2022/05/05 03:06:07;;;;;;;9.20;2.80;;;;;;;7.83;42.85;100219.59;105098;1271;61888;-64
2022/05/05 03:08:55;;;;;;;9.00;2.90;;;;;;;7.82;43.13;100219.65;104903;1271;74105;-63
2022/05/05 03:11:42;;;;;;;9.80;2.70;;;;;;;7.81;43.14;100212.48;104912;1271;68408;-65
2022/05/05 03:14:31;;;;;;;11.30;2.50;;;;;;;7.80;43.22;100209.91;104992;1271;73577;-63
2022/05/05 03:17:19;;;;;;;8.20;2.50;;;;;;;7.80;43.03;100212.90;104998;1271;59644;-65
2022/05/05 03:20:08;;;;;;;7.60;2.90;;;;;;;7.80;43.24;100210.23;104888;1271;59653;-66
2022/05/05 03:23:01;;;;;;;9.00;2.60;;;;;;;7.80;43.39;100209.34;104952;1271;70744;-69
2022/05/05 03:25:53;;;;;;;8.40;2.90;;;;;;;7.81;43.61;100205.95;107219;1271;68747;-70
2022/05/05 03:28:41;;;;;;;8.20;2.60;;;;;;;7.82;43.60;100206.42;107190;1271;71964;-68
2022/05/05 03:31:31;;;;;;;8.50;3.00;;;;;;;7.83;43.83;100205.42;106709;1271;59681;-67
2022/05/05 03:34:20;;;;;;;8.10;2.70;;;;;;;7.86;43.80;100200.72;106625;1271;59624;-69
2022/05/05 03:37:08;;;;;;;11.30;3.10;;;;;;;7.88;43.81;100199.16;104761;1271;74405;-71
2022/05/05 03:39:56;;;;;;;9.90;3.00;;;;;;;7.90;44.08;100200.98;104706;1271;68655;-71
2022/05/05 03:42:44;;;;;;;9.60;3.40;;;;;;;7.91;43.93;100197.21;104798;1273;73315;-69
2022/05/05 03:45:31;;;;;;;8.50;2.80;;;;;;;7.91;43.94;100198.05;104761;1273;59801;-70
2022/05/05 03:48:20;;;;;;;11.90;3.30;;;;;;;7.91;44.04;100193.27;104656;1274;59647;-69
2022/05/05 03:51:09;;;;;;;10.00;3.20;;;;;;;7.93;44.47;100194.04;104614;1271;72770;-71
2022/05/05 03:53:57;;;;;;;10.30;3.50;;;;;;;7.95;44.46;100188.64;104682;1270;66386;-70
2022/05/05 03:56:46;;;;;;;9.70;3.00;;;;;;;7.95;44.84;100193.74;104677;1271;71639;-68
2022/05/05 03:59:34;;;;;;;10.90;3.60;;;;;;;7.96;44.86;100201.77;104665;1271;59657;-65
2022/05/05 04:02:21;;;;;;;11.70;4.00;;;;;;;8.00;44.73;100196.44;104663;1271;60593;-69
2022/05/05 04:05:10;;;;;;;11.50;3.40;;;;;;;8.01;44.94;100197.74;104802;1271;73676;-71
2022/05/05 04:08:01;;;;;;;9.30;3.00;;;;;;;8.02;44.90;100195.41;104697;1271;67223;-69
2022/05/05 04:10:49;;;;;;;10.70;3.60;;;;;;;8.03;44.80;100195.90;104849;1271;73258;-70
2022/05/05 04:13:37;;;;;;;12.90;4.20;;;;;;;8.04;44.97;100198.48;104766;1271;59738;-71
2022/05/05 04:16:31;;;;;;;16.20;4.10;;;;;;;8.06;45.06;100198.02;104926;1271;59717;-69
2022/05/05 04:19:18;;;;;;;14.30;3.90;;;;;;;8.08;45.14;100196.81;104817;1271;72898;-71
2022/05/05 04:22:07;;;;;;;12.30;3.80;;;;;;;8.10;45.19;100199.88;104825;1271;68654;-71
2022/05/05 04:24:55;;;;;;;15.40;3.60;;;;;;;8.12;45.39;100196.90;104718;1271;71628;-66
2022/05/05 04:27:45;;;;;;;13.30;4.10;;;;;;;8.16;45.34;100202.11;104896;1271;59570;-70
2022/05/05 04:30:33;;;;;;;15.20;3.80;;;;;;;8.19;45.51;100204.88;104856;1271;59744;-67
2022/05/05 04:33:22;;;;;;;12.70;3.70;;;;;;;8.22;45.33;100205.80;104932;1271;72201;-68
2022/05/05 04:36:12;;;;;;;13.20;4.00;;;;;;;8.24;45.60;100210.42;105056;1271;69652;-67
2022/05/05 04:38:59;;;;;;;11.10;2.90;;;;;;;8.28;45.66;100214.55;104923;1271;72177;-69
2022/05/05 04:41:47;;;;;;;12.50;3.70;;;;;;;8.31;45.96;100215.83;104830;1271;59710;-69
2022/05/05 04:44:38;;;;;;;10.80;2.90;;;;;;;8.36;45.83;100220.44;104885;1271;60862;-70
2022/05/05 04:47:26;;;;;;;9.70;3.20;;;;;;;8.41;45.80;100224.20;104979;1271;74320;-66
2022/05/05 04:50:15;;;;;;;15.40;4.90;;;;;;;8.43;46.12;100224.91;104748;1271;69574;-70
2022/05/05 04:53:02;;;;;;;13.50;3.20;;;;;;;8.46;46.04;100224.03;104884;1271;73476;-66
2022/05/05 04:55:51;;;;;;;12.20;3.30;;;;;;;8.48;46.08;100225.13;104875;1271;59596;-67
2022/05/05 04:58:43;;;;;;;13.70;3.50;;;;;;;8.51;46.23;100224.60;104988;1271;61086;-67
2022/05/05 05:01:32;;;;;;;12.10;3.60;;;;;;;8.54;46.39;100226.52;104928;1271;73786;-66
2022/05/05 05:04:20;;;;;;;17.70;4.00;;;;;;;8.58;46.81;100222.54;105004;1271;66966;-66
2022/05/05 05:07:07;;;;;;;14.50;3.20;;;;;;;8.63;46.59;100220.30;104820;1271;72275;-66
2022/05/05 05:09:55;;;;;;;12.70;3.70;;;;;;;8.69;46.69;100217.58;102753;1271;1003184;-66
2022/05/05 05:12:44;;;;;;;17.10;3.90;;;;;;;8.74;46.69;100216.52;104824;1271;59605;-68
2022/05/05 05:15:32;;;;;;;14.00;4.10;;;;;;;8.80;46.69;100214.30;104638;1271;74064;-68
2022/05/05 05:18:20;;;;;;;18.10;3.90;;;;;;;8.88;46.61;100208.68;104968;1271;68627;-69
2022/05/05 05:21:08;;;;;;;11.30;2.90;;;;;;;8.98;46.52;100206.23;105291;1271;71410;-67
2022/05/05 05:23:56;;;;;;;19.00;3.50;;;;;;;9.07;46.61;100209.13;105137;1271;59977;-69
2022/05/05 05:26:45;;;;;;;14.70;3.70;;;;;;;9.12;46.48;100210.57;105056;1271;60428;-67
2022/05/05 05:29:33;;;;;;;16.70;3.90;;;;;;;9.12;46.56;100209.17;104791;1271;73524;-66
2022/05/05 05:32:20;;;;;;;13.50;6.00;;;;;;;9.14;46.64;100205.13;104728;1271;69674;-61
2022/05/05 05:35:08;;;;;;;10.10;3.50;;;;;;;9.15;46.79;100207.70;104798;1271;73454;-65
2022/05/05 05:37:56;;;;;;;12.70;3.70;;;;;;;9.13;47.06;100210.17;104781;1271;59541;-63
2022/05/05 05:40:44;;;;;;;12.00;3.80;;;;;;;9.11;47.18;100214.70;104673;1271;59753;-67
2022/05/05 05:43:32;;;;;;;15.90;3.80;;;;;;;9.13;47.27;100228.17;104752;1271;74026;-66
2022/05/05 05:46:20;;;;;;;11.40;3.90;;;;;;;9.18;47.45;100222.31;104754;1271;66779;-68
2022/05/05 05:49:09;;;;;;;15.60;5.60;;;;;;;9.28;47.57;100223.08;104993;1271;74501;-65
2022/05/05 05:51:57;;;;;;;14.40;4.20;;;;;;;9.41;47.34;100225.19;104696;1271;59657;-65
2022/05/05 05:54:45;;;;;;;13.40;4.30;;;;;;;9.52;47.22;100216.64;103340;1271;1003494;-64
2022/05/05 05:57:41;;;;;;;15.70;3.90;;;;;;;9.67;47.35;100214.16;105251;1271;72502;-63
2022/05/05 06:00:30;;;;;;;17.70;4.50;;;;;;;9.86;47.35;100212.83;104828;1271;68708;-65
2022/05/05 06:06:25;;;;;;;17.30;4.90;;;;;;;10.26;46.54;100213.29;104844;1271;59743;-68
2022/05/05 06:09:14;;;;;;;20.00;4.70;;;;;;;10.38;46.70;100217.93;104701;1271;60514;-64
2022/05/05 06:12:03;;;;;;;20.80;5.40;;;;;;;10.44;46.71;100217.27;104761;1271;73886;-68
2022/05/05 06:14:51;;;;;;;22.10;5.40;;;;;;;10.50;46.82;100215.11;104892;1271;66756;-64
2022/05/05 06:17:40;;;;;;;17.50;4.80;;;;;;;10.52;47.05;100210.67;104864;1271;72487;-66
2022/05/05 06:20:28;;;;;;;18.40;4.90;;;;;;;10.58;47.11;100210.95;105065;1271;59765;-66
2022/05/05 06:23:17;;;;;;;17.50;4.30;;;;;;;10.67;47.14;100215.23;104738;1271;59576;-66
2022/05/05 06:26:05;;;;;;;18.60;5.00;;;;;;;10.72;46.97;100210.77;104822;1271;73858;-64
2022/05/05 06:28:55;;;;;;;16.20;4.40;;;;;;;10.82;47.40;100210.14;104780;1271;68728;-68
2022/05/05 06:31:43;;;;;;;12.30;4.00;;;;;;;10.89;47.09;100215.34;104804;1271;73378;-67
2022/05/05 06:34:31;;;;;;;18.60;4.70;;;;;;;10.96;47.06;100213.19;105261;1271;59721;-64
2022/05/05 06:37:19;;;;;;;12.70;4.50;;;;;;;11.06;46.65;100216.71;107627;1271;59651;-67
2022/05/05 06:40:08;;;;;;;11.10;4.40;;;;;;;11.18;46.65;100214.52;107193;1271;72205;-66
2022/05/05 06:42:56;;;;;;;15.80;4.50;;;;;;;11.38;46.14;100220.27;107520;1271;67864;-66
2022/05/05 06:45:46;;;;;;;17.00;5.00;;;;;;;11.47;46.13;100225.05;106491;1271;74627;-64
2022/05/05 06:48:35;;;;;;;12.40;4.60;;;;;;;11.47;46.17;100224.39;104785;1271;59705;-65
2022/05/05 06:51:23;;;;;;;15.80;4.50;;;;;;;11.49;46.25;100224.53;105046;1271;60305;-63
2022/05/05 06:54:11;;;;;;;12.70;4.50;;;;;;;11.44;46.26;100229.19;104811;1271;71752;-65
2022/05/05 06:57:00;;;;;;;12.30;5.00;;;;;;;11.49;46.61;100228.46;105070;1271;69542;-64
2022/05/05 06:59:48;;;;;;;16.00;4.80;;;;;;;11.60;46.62;100227.42;104781;1271;75304;-64
2022/05/05 07:02:36;;;;;;;14.20;5.00;;;;;;;11.83;46.26;100227.70;104852;1271;59788;-63
2022/05/05 07:05:24;;;;;;;11.50;4.70;;;;;;;12.03;45.85;100228.41;104807;1271;60363;-68
2022/05/05 07:08:13;;;;;;;14.70;4.60;;;;;;;12.25;45.66;100226.67;105008;1271;73839;-69
2022/05/05 07:11:01;;;;;;;18.40;8.00;;;;;;;12.43;45.42;100224.98;104824;1271;68535;-64
2022/05/05 07:13:50;;;;;;;15.20;5.50;;;;;;;12.63;45.08;100231.94;104804;1271;74499;-65
2022/05/05 07:16:38;;;;;;;24.30;5.90;;;;;;;12.75;45.03;100232.33;104918;1271;59875;-67
2022/05/05 07:19:26;;;;;;;24.90;5.70;;;;;;;12.84;44.96;100227.88;104799;1272;61544;-67
2022/05/05 07:22:14;;;;;;;24.60;5.90;;;;;;;12.88;44.99;100224.67;105062;1271;74384;-65
2022/05/05 07:25:03;;;;;;;25.60;6.60;;;;;;;12.89;45.20;100229.15;104825;1271;67239;-64
2022/05/05 07:27:51;;;;;;;33.30;6.90;;;;;;;12.89;45.45;100230.92;104757;1271;71277;-64
2022/05/05 07:30:39;;;;;;;22.40;6.00;;;;;;;12.98;45.63;100230.41;104842;1271;59682;-65
2022/05/05 07:33:29;;;;;;;21.10;7.00;;;;;;;13.00;45.80;100227.59;104964;1271;62303;-67
2022/05/05 07:36:17;;;;;;;23.80;6.60;;;;;;;13.01;46.04;100232.66;105021;1271;73591;-67
2022/05/05 07:39:05;;;;;;;17.90;5.90;;;;;;;13.05;46.13;100235.13;104929;1271;67379;-64
2022/05/05 07:41:53;;;;;;;15.90;6.10;;;;;;;13.12;46.18;100236.19;104899;1270;71849;-64
2022/05/05 07:44:40;;;;;;;14.90;6.00;;;;;;;13.26;45.95;100236.91;104360;1271;1002834;-67
2022/05/05 07:47:28;;;;;;;13.90;5.60;;;;;;;13.52;45.65;100240.23;104852;1271;59765;-65
2022/05/05 07:50:16;;;;;;;14.20;5.00;;;;;;;13.84;45.03;100231.18;104940;1271;72308;-66
2022/05/05 07:53:04;;;;;;;13.90;6.40;;;;;;;14.19;44.25;100232.02;104957;1271;70389;-67
2022/05/05 07:55:52;;;;;;;15.50;5.20;;;;;;;14.57;43.93;100228.58;104776;1272;71712;-64
2022/05/05 07:58:39;;;;;;;15.60;5.60;;;;;;;14.96;43.06;100218.92;105160;1271;59774;-65
2022/05/05 08:01:28;;;;;;;14.90;4.80;;;;;;;15.18;42.79;100215.43;104870;1271;60526;-64
2022/05/05 08:04:17;;;;;;;13.70;5.40;;;;;;;15.33;42.98;100214.02;104761;1271;73654;-66
2022/05/05 08:07:05;;;;;;;13.80;5.30;;;;;;;15.52;42.93;100217.40;104741;1271;66237;-64
2022/05/05 08:09:53;;;;;;;11.80;5.00;;;;;;;15.55;42.57;100216.00;104865;1271;72531;-64
2022/05/05 08:12:49;;;;;;;15.80;5.50;;;;;;;15.38;43.22;100229.14;105013;1271;59568;-66
2022/05/05 08:15:37;;;;;;;11.70;4.90;;;;;;;15.40;43.31;100232.25;104811;1271;59720;-67
2022/05/05 08:18:25;;;;;;;13.30;5.40;;;;;;;15.57;43.46;100228.86;104795;1271;74514;-68
2022/05/05 08:21:13;;;;;;;14.90;5.00;;;;;;;15.97;42.92;100227.86;104787;1271;69658;-65
2022/05/05 08:30:25;;;;;;;13.90;5.10;;;;;;;17.40;40.71;100238.91;104714;1271;59637;-66
2022/05/05 08:33:13;;;;;;;11.70;5.10;;;;;;;17.56;41.10;100242.08;104822;1271;74223;-65
2022/05/05 08:36:01;;;;;;;12.60;4.80;;;;;;;17.79;41.11;100250.95;105027;1271;69660;-65
2022/05/05 08:38:49;;;;;;;10.10;4.50;;;;;;;18.00;41.09;100250.51;105052;1271;73325;-67
2022/05/05 08:41:41;;;;;;;9.40;4.50;;;;;;;18.21;40.74;100246.57;104809;1271;59984;-63
2022/05/05 08:44:29;;;;;;;9.30;4.40;;;;;;;18.33;40.18;100253.33;104807;1271;60114;-68
2022/05/05 08:47:21;;;;;;;11.50;5.20;;;;;;;18.38;40.28;100251.59;104776;1271;72323;-68
2022/05/05 08:50:10;;;;;;;10.30;5.50;;;;;;;18.52;39.84;100240.39;104735;1271;66541;-68
2022/05/05 08:53:01;;;;;;;10.60;4.60;;;;;;;19.04;39.19;100239.80;104742;1271;73464;-63
2022/05/05 08:55:49;;;;;;;11.40;5.10;;;;;;;19.61;38.51;100236.60;105050;1271;59792;-68
2022/05/05 08:58:37;;;;;;;10.00;4.30;;;;;;;19.99;37.65;100230.77;104803;1271;59647;-68
2022/05/05 09:01:27;;;;;;;10.20;4.10;;;;;;;20.15;37.33;100226.76;104871;1271;72963;-66
2022/05/05 09:04:15;;;;;;;10.70;4.10;;;;;;;20.32;36.73;100233.00;104821;1271;68803;-64
2022/05/05 09:07:03;;;;;;;8.90;4.10;;;;;;;20.71;36.15;100231.05;102683;1271;2891464;-66
2022/05/05 09:09:50;;;;;;;9.60;3.90;;;;;;;21.37;34.97;100235.55;104705;1272;59688;-69
2022/05/05 09:12:41;;;;;;;8.80;3.90;;;;;;;21.21;34.60;100237.56;105011;1271;60486;-67
2022/05/05 09:15:36;;;;;;;9.00;4.40;;;;;;;20.53;35.48;100245.06;105018;1271;74681;-65
2022/05/05 09:18:30;;;;;;;9.30;3.60;;;;;;;20.17;36.45;100249.96;104887;1271;67182;-67
2022/05/05 09:21:32;;;;;;;9.60;3.50;;;;;;;19.89;37.06;100255.47;105007;1271;73666;-68
2022/05/05 09:24:35;;;;;;;10.30;4.30;;;;;;;19.29;38.12;100255.48;104656;1271;59718;-64
2022/05/05 09:27:31;;;;;;;9.80;4.10;;;;;;;18.76;39.35;100263.31;105031;1271;62172;-71
2022/05/05 09:30:19;;;;;;;9.40;4.10;;;;;;;18.39;40.08;100263.16;105447;1273;74161;-72
2022/05/05 09:33:07;;;;;;;10.10;4.00;;;;;;;18.08;41.08;100278.98;105368;1273;67748;-72
2022/05/05 09:35:59;;;;;;;10.90;4.70;;;;;;;17.81;42.00;100279.35;105125;1273;71730;-72
2022/05/05 09:38:59;;;;;;;9.40;4.10;;;;;;;17.60;42.32;100281.33;104822;1273;59711;-70
2022/05/05 09:41:49;;;;;;;11.00;5.00;;;;;;;17.42;42.84;100286.02;105261;1273;60749;-70
2022/05/05 09:44:46;;;;;;;9.90;4.30;;;;;;;17.30;42.82;100291.52;105065;1274;74791;-69
2022/05/05 09:47:34;;;;;;;10.20;4.50;;;;;;;17.12;43.14;100292.11;105323;1273;68084;-72
2022/05/05 09:50:25;;;;;;;10.80;5.00;;;;;;;16.83;43.50;100293.77;105002;1273;70876;-73
2022/05/05 09:59:30;;;;;;;13.30;5.30;;;;;;;16.20;46.56;100314.81;105174;1273;72037;-70
2022/05/05 10:05:38;;;;;;;11.20;5.10;;;;;;;15.74;50.61;100327.98;105043;1273;73903;-73
2022/05/05 10:08:45;;;;;;;11.30;4.90;;;;;;;15.50;52.05;100330.02;105144;1273;59633;-70
2022/05/05 10:11:35;;;;;;;11.90;5.30;;;;;;;15.29;53.82;100332.15;105018;1273;60385;-71
2022/05/05 10:14:25;;;;;;;12.00;5.90;;;;;;;15.05;55.38;100326.34;105282;1273;73003;-71
2022/05/05 10:17:14;;;;;;;14.90;5.70;;;;;;;14.82;56.45;100329.02;105358;1273;67827;-71
2022/05/05 10:20:04;;;;;;;12.90;5.80;;;;;;;14.58;58.17;100328.10;105039;1274;71316;-68
2022/05/05 10:23:07;;;;;;;14.00;6.30;;;;;;;14.41;58.90;100330.17;104827;1273;59765;-72
2022/05/05 10:25:57;;;;;;;12.90;6.20;;;;;;;14.29;60.47;100339.05;104768;1274;60707;-70
2022/05/05 10:28:47;;;;;;;10.70;6.40;;;;;;;14.16;61.68;100335.71;104954;1273;74667;-68
2022/05/05 10:31:44;;;;;;;12.90;6.40;;;;;;;14.07;62.89;100333.55;105012;1273;69068;-72
2022/05/05 10:34:32;;;;;;;12.40;6.80;;;;;;;14.03;63.87;100333.70;104885;1273;70804;-70
2022/05/05 10:37:34;;;;;;;12.00;6.40;;;;;;;13.99;64.35;100337.58;104931;1273;59663;-69
2022/05/05 10:40:23;;;;;;;12.80;6.60;;;;;;;13.96;65.88;100342.49;105130;1273;60978;-66
2022/05/05 10:43:11;;;;;;;15.10;7.10;;;;;;;13.90;66.37;100342.86;105015;1273;73243;-66
2022/05/05 10:45:59;;;;;;;14.30;6.80;;;;;;;13.84;67.42;100338.90;104797;1273;68459;-67
2022/05/05 10:48:48;;;;;;;14.20;8.10;;;;;;;13.87;67.93;100340.98;104956;1271;73298;-69
2022/05/05 10:52:08;;;;;;;12.50;7.50;;;;;;;13.97;68.77;100339.06;105053;1273;59792;-69
2022/05/05 10:54:56;;;;;;;11.90;7.10;;;;;;;14.09;69.25;100335.61;104967;1273;60618;-70
2022/05/05 10:57:44;;;;;;;13.40;7.10;;;;;;;14.18;69.69;100337.21;104989;1273;74567;-68
2022/05/05 11:00:43;;;;;;;13.70;7.30;;;;;;;14.26;70.13;100341.98;105091;1273;68324;-68
2022/05/05 11:03:30;;;;;;;13.70;6.50;;;;;;;14.20;69.56;100336.63;105040;1273;73458;-69
2022/05/05 11:06:19;;;;;;;13.30;6.60;;;;;;;14.02;69.18;100335.42;104720;1273;59707;-68
2022/05/05 11:09:07;;;;;;;12.30;6.40;;;;;;;13.88;68.88;100332.98;104849;1273;59662;-68
2022/05/05 11:12:21;;;;;;;12.30;6.60;;;;;;;13.75;68.71;100331.07;104792;1273;74662;-70
2022/05/05 11:21:32;;;;;;;12.90;6.90;;;;;;;13.44;71.75;100328.80;104977;1274;59663;-69
2022/05/05 11:24:29;;;;;;;13.60;6.90;;;;;;;13.40;71.68;100328.71;105130;1273;61085;-71
2022/05/05 11:27:20;;;;;;;11.50;6.80;;;;;;;13.38;71.71;100328.08;104671;1273;72080;-67
2022/05/05 11:30:14;;;;;;;13.40;7.00;;;;;;;13.42;72.47;100327.86;104727;1273;68918;-67
2022/05/05 11:33:03;;;;;;;13.40;6.80;;;;;;;13.56;72.10;100333.65;104542;1273;74706;-67
2022/05/05 11:36:07;;;;;;;12.90;7.30;;;;;;;13.72;72.72;100324.63;104728;1274;59772;-69
2022/05/05 11:38:57;;;;;;;13.80;7.80;;;;;;;13.77;72.10;100321.67;104939;1273;59993;-70
2022/05/05 11:42:08;;;;;;;13.20;7.50;;;;;;;13.82;71.51;100320.17;104920;1273;74577;-70
2022/05/05 11:44:56;;;;;;;14.60;8.50;;;;;;;13.85;72.72;100320.21;104963;1273;68632;-73
2022/05/05 11:47:45;;;;;;;13.60;7.90;;;;;;;13.96;72.12;100320.95;105343;1273;72660;-75
2022/05/05 11:50:40;;;;;;;14.40;7.50;;;;;;;14.11;71.87;100323.90;105151;1273;60328;-74
2022/05/05 11:53:29;;;;;;;13.00;7.30;;;;;;;14.22;71.70;100322.91;105823;1274;59794;-67
2022/05/05 11:56:18;;;;;;;13.20;7.40;;;;;;;14.26;71.39;100329.55;105348;1273;74078;-72
2022/05/05 12:02:38;;;;;;;13.10;8.00;;;;;;;14.33;71.45;100340.70;105293;1273;73229;-68
2022/05/05 12:05:29;;;;;;;13.80;8.40;;;;;;;14.28;71.33;100341.95;104965;1274;59724;-68
2022/05/05 12:08:17;;;;;;;14.20;8.40;;;;;;;14.25;71.41;100343.35;104722;1273;59948;-69
2022/05/05 12:11:05;;;;;;;11.90;7.70;;;;;;;14.25;72.32;100342.42;104994;1273;72875;-74
2022/05/05 12:14:05;;;;;;;13.00;7.70;;;;;;;14.23;71.94;100343.11;105444;1273;66552;-72
2022/05/05 12:16:53;;;;;;;14.10;7.20;;;;;;;14.17;71.71;100347.41;104745;1273;72329;-71
2022/05/05 12:19:55;;;;;;;13.10;7.50;;;;;;;14.12;72.49;100352.88;104790;1273;59673;-73
2022/05/05 12:22:44;;;;;;;11.20;6.50;;;;;;;14.00;72.39;100352.66;104806;1273;61957;-69
2022/05/05 12:25:33;;;;;;;11.80;6.80;;;;;;;13.95;72.61;100352.92;105039;1273;73661;-70
2022/05/05 12:28:28;;;;;;;11.30;6.70;;;;;;;13.91;72.32;100356.31;105064;1274;67523;-73
2022/05/05 12:31:28;;;;;;;12.40;7.80;;;;;;;13.84;73.07;100363.13;104990;1273;73351;-68
2022/05/05 12:34:34;;;;;;;12.80;7.50;;;;;;;13.76;73.57;100363.12;105238;1274;59563;-71
2022/05/05 12:37:25;;;;;;;14.40;7.80;;;;;;;13.74;74.05;100365.11;105073;1274;59665;-72
2022/05/05 12:40:16;;;;;;;13.30;7.60;;;;;;;13.71;75.03;100367.84;104688;1274;74222;-72
2022/05/05 12:43:09;;;;;;;12.30;7.60;;;;;;;13.65;75.95;100366.19;104847;1274;66779;-71
2022/05/05 12:46:04;;;;;;;12.50;7.30;;;;;;;13.55;75.51;100367.73;105331;1274;74024;-69
2022/05/05 12:48:53;;;;;;;14.80;8.20;;;;;;;13.44;76.46;100363.88;105113;1273;59777;-70
2022/05/05 12:51:41;;;;;;;14.90;9.50;;;;;;;13.33;76.48;100365.91;104849;1274;61054;-70
2022/05/05 13:00:49;;;;;;;15.70;9.50;;;;;;;13.04;79.29;100341.05;105202;1273;71554;-68
2022/05/05 13:04:03;;;;;;;15.90;9.90;;;;;;;12.99;80.43;100340.02;104723;1273;60336;-67
2022/05/05 13:06:52;;;;;;;14.80;9.50;;;;;;;12.94;80.99;100339.17;104938;1273;59823;-66
2022/05/05 13:09:39;;;;;;;15.70;10.00;;;;;;;12.92;81.45;100334.14;104933;1274;73877;-67
2022/05/05 13:12:28;;;;;;;17.30;10.10;;;;;;;12.95;81.80;100328.56;105051;1273;68629;-69
2022/05/05 13:15:16;;;;;;;15.60;10.10;;;;;;;12.99;82.12;100328.27;104667;1274;74017;-66
2022/05/05 13:18:05;;;;;;;16.50;10.60;;;;;;;13.02;81.96;100327.13;104758;1273;59763;-69
2022/05/05 13:20:53;;;;;;;18.50;11.30;;;;;;;13.04;82.44;100333.34;104885;1271;59667;-66
2022/05/05 13:23:41;;;;;;;16.90;11.40;;;;;;;13.07;82.70;100333.80;105066;1274;73332;-71
2022/05/05 13:26:30;;;;;;;16.10;10.10;;;;;;;13.11;83.23;100333.48;105537;1273;66699;-73
2022/05/05 13:29:19;;;;;;;16.30;10.10;;;;;;;13.10;83.09;100337.42;105005;1274;71649;-73
2022/05/05 13:32:08;;;;;;;17.20;10.20;;;;;;;13.08;82.58;100336.73;104877;1273;60195;-71
2022/05/05 13:34:56;;;;;;;17.10;9.60;;;;;;;13.00;82.11;100346.16;104927;1274;59564;-70
2022/05/05 13:37:44;;;;;;;15.80;10.50;;;;;;;12.91;82.26;100346.19;104826;1273;72383;-72
2022/05/05 13:40:32;;;;;;;18.30;11.00;;;;;;;12.85;82.70;100345.23;104948;1273;69676;-73
2022/05/05 13:43:22;;;;;;;16.70;10.90;;;;;;;12.82;83.70;100340.71;104998;1274;73555;-71